sensor_id;sensor_type;location;lat;lon;timestamp;P1;durP1;ratioP1;P2;durP2;ratioP2
9178;SDS011;71287;48.414;11.478;2024-03-23T00:54:03;3.27;;;2.97;;
9178;SDS011;71287;48.414;11.478;2024-03-23T00:56:30;3.27;;;2.80;;
9178;SDS011;71287;48.414;11.478;2024-03-23T00:58:56;3.80;;;3.10;;
9178;SDS011;71287;48.414;11.478;2024-03-23T01:01:22;3.27;;;2.97;;
9178;SDS011;71287;48.414;11.478;2024-03-23T01:03:48;3.57;;;3.27;;
9178;SDS011;71287;48.414;11.478;2024-03-23T01:06:15;3.70;;;3.00;;
9178;SDS011;71287;48.414;11.478;2024-03-23T01:08:40;6.00;;;3.10;;
9178;SDS011;71287;48.414;11.478;2024-03-23T01:11:08;3.50;;;2.40;;
9178;SDS011;71287;48.414;11.478;2024-03-23T01:13:34;3.30;;;3.00;;
9178;SDS011;71287;48.414;11.478;2024-03-23T01:16:01;3.63;;;2.93;;
9178;SDS011;71287;48.414;11.478;2024-03-23T01:18:27;2.87;;;2.67;;
9178;SDS011;71287;48.414;11.478;2024-03-23T01:20:54;3.10;;;2.80;;
9178;SDS011;71287;48.414;11.478;2024-03-23T01:23:20;3.17;;;2.87;;
9178;SDS011;71287;48.414;11.478;2024-03-23T01:25:51;3.53;;;3.10;;
9178;SDS011;71287;48.414;11.478;2024-03-23T01:28:19;2.93;;;2.57;;
9178;SDS011;71287;48.414;11.478;2024-03-23T01:30:46;4.37;;;2.90;;
9178;SDS011;71287;48.414;11.478;2024-03-23T01:33:12;5.30;;;3.80;;
9178;SDS011;71287;48.414;11.478;2024-03-23T01:35:39;3.40;;;3.00;;
9178;SDS011;71287;48.414;11.478;2024-03-23T01:38:05;3.30;;;3.07;;
9178;SDS011;71287;48.414;11.478;2024-03-23T01:40:31;3.10;;;2.77;;
9178;SDS011;71287;48.414;11.478;2024-03-23T01:42:57;3.40;;;2.73;;
9178;SDS011;71287;48.414;11.478;2024-03-23T01:45:29;6.80;;;2.60;;
9178;SDS011;71287;48.414;11.478;2024-03-23T01:47:55;3.83;;;2.77;;
9178;SDS011;71287;48.414;11.478;2024-03-23T01:50:22;2.60;;;2.40;;
9178;SDS011;71287;48.414;11.478;2024-03-23T01:52:48;2.47;;;2.27;;
9178;SDS011;71287;48.414;11.478;2024-03-23T01:55:16;2.90;;;2.60;;
9178;SDS011;71287;48.414;11.478;2024-03-23T01:57:42;4.47;;;3.00;;
9178;SDS011;71287;48.414;11.478;2024-03-23T02:00:09;3.10;;;2.80;;
9178;SDS011;71287;48.414;11.478;2024-03-23T02:02:38;4.50;;;2.60;;
9178;SDS011;71287;48.414;11.478;2024-03-23T02:05:08;4.40;;;3.33;;
9178;SDS011;71287;48.414;11.478;2024-03-23T02:07:34;3.07;;;2.83;;
9178;SDS011;71287;48.414;11.478;2024-03-23T02:10:01;3.83;;;2.47;;
9178;SDS011;71287;48.414;11.478;2024-03-23T02:12:27;2.90;;;2.70;;
9178;SDS011;71287;48.414;11.478;2024-03-23T02:14:53;3.27;;;2.97;;
9178;SDS011;71287;48.414;11.478;2024-03-23T02:17:19;2.93;;;2.67;;
9178;SDS011;71287;48.414;11.478;2024-03-23T02:19:47;3.17;;;2.40;;
9178;SDS011;71287;48.414;11.478;2024-03-23T02:22:13;2.70;;;2.50;;
9178;SDS011;71287;48.414;11.478;2024-03-23T02:24:42;4.37;;;2.63;;
9178;SDS011;71287;48.414;11.478;2024-03-23T02:27:08;2.80;;;2.47;;
9178;SDS011;71287;48.414;11.478;2024-03-23T02:29:35;3.00;;;2.70;;
9178;SDS011;71287;48.414;11.478;2024-03-23T02:32:00;2.60;;;2.40;;
9178;SDS011;71287;48.414;11.478;2024-03-23T02:34:27;2.63;;;2.40;;
9178;SDS011;71287;48.414;11.478;2024-03-23T02:36:53;2.67;;;2.47;;
9178;SDS011;71287;48.414;11.478;2024-03-23T02:39:19;3.87;;;2.50;;
9178;SDS011;71287;48.414;11.478;2024-03-23T02:41:47;2.50;;;2.30;;
9178;SDS011;71287;48.414;11.478;2024-03-23T02:44:13;3.00;;;2.70;;
9178;SDS011;71287;48.414;11.478;2024-03-23T02:46:39;2.73;;;2.50;;
9178;SDS011;71287;48.414;11.478;2024-03-23T02:49:06;3.30;;;2.17;;
9178;SDS011;71287;48.414;11.478;2024-03-23T02:51:32;3.50;;;2.37;;
9178;SDS011;71287;48.414;11.478;2024-03-23T02:53:59;2.83;;;2.23;;
9178;SDS011;71287;48.414;11.478;2024-03-23T02:56:25;3.60;;;2.57;;
9178;SDS011;71287;48.414;11.478;2024-03-23T02:58:53;3.07;;;2.73;;
9178;SDS011;71287;48.414;11.478;2024-03-23T03:01:19;2.93;;;2.60;;
9178;SDS011;71287;48.414;11.478;2024-03-23T03:03:46;3.33;;;2.90;;
9178;SDS011;71287;48.414;11.478;2024-03-23T03:06:12;4.60;;;2.67;;
9178;SDS011;71287;48.414;11.478;2024-03-23T03:08:49;6.57;;;2.90;;
9178;SDS011;71287;48.414;11.478;2024-03-23T03:11:15;3.00;;;2.70;;
9178;SDS011;71287;48.414;11.478;2024-03-23T03:13:41;2.83;;;2.60;;
9178;SDS011;71287;48.414;11.478;2024-03-23T03:16:09;4.03;;;2.93;;
9178;SDS011;71287;48.414;11.478;2024-03-23T03:18:36;4.40;;;3.53;;
9178;SDS011;71287;48.414;11.478;2024-03-23T03:21:02;4.83;;;3.47;;
9178;SDS011;71287;48.414;11.478;2024-03-23T03:23:30;3.40;;;3.10;;
9178;SDS011;71287;48.414;11.478;2024-03-23T03:25:56;3.93;;;2.70;;
9178;SDS011;71287;48.414;11.478;2024-03-23T03:28:23;3.37;;;2.97;;
9178;SDS011;71287;48.414;11.478;2024-03-23T03:30:49;3.60;;;2.57;;
9178;SDS011;71287;48.414;11.478;2024-03-23T03:33:17;4.30;;;2.87;;
9178;SDS011;71287;48.414;11.478;2024-03-23T03:35:43;3.80;;;2.47;;
9178;SDS011;71287;48.414;11.478;2024-03-23T03:38:10;2.80;;;2.30;;
9178;SDS011;71287;48.414;11.478;2024-03-23T03:40:36;3.17;;;2.40;;
9178;SDS011;71287;48.414;11.478;2024-03-23T03:43:03;3.60;;;2.10;;
9178;SDS011;71287;48.414;11.478;2024-03-23T03:45:29;2.80;;;2.03;;
9178;SDS011;71287;48.414;11.478;2024-03-23T03:47:56;3.10;;;2.30;;
9178;SDS011;71287;48.414;11.478;2024-03-23T03:50:23;3.07;;;2.23;;
9178;SDS011;71287;48.414;11.478;2024-03-23T03:52:50;2.77;;;2.27;;
9178;SDS011;71287;48.414;11.478;2024-03-23T03:55:16;1.80;;;1.70;;
9178;SDS011;71287;48.414;11.478;2024-03-23T03:57:43;2.90;;;2.10;;
9178;SDS011;71287;48.414;11.478;2024-03-23T04:00:09;2.40;;;2.10;;
9178;SDS011;71287;48.414;11.478;2024-03-23T04:02:37;2.47;;;2.27;;
9178;SDS011;71287;48.414;11.478;2024-03-23T04:05:03;2.70;;;2.50;;
9178;SDS011;71287;48.414;11.478;2024-03-23T04:07:31;3.37;;;2.40;;
9178;SDS011;71287;48.414;11.478;2024-03-23T04:09:57;4.03;;;1.90;;
9178;SDS011;71287;48.414;11.478;2024-03-23T04:12:24;2.63;;;2.03;;
9178;SDS011;71287;48.414;11.478;2024-03-23T04:14:50;4.33;;;2.67;;
9178;SDS011;71287;48.414;11.478;2024-03-23T04:17:17;2.97;;;2.77;;
9178;SDS011;71287;48.414;11.478;2024-03-23T04:19:43;3.60;;;3.17;;
9178;SDS011;71287;48.414;11.478;2024-03-23T04:22:10;4.53;;;3.50;;
9178;SDS011;71287;48.414;11.478;2024-03-23T04:24:38;3.73;;;3.33;;
9178;SDS011;71287;48.414;11.478;2024-03-23T04:27:04;3.10;;;2.80;;
9178;SDS011;71287;48.414;11.478;2024-03-23T04:29:30;3.43;;;2.70;;
9178;SDS011;71287;48.414;11.478;2024-03-23T04:31:57;2.50;;;2.30;;
9178;SDS011;71287;48.414;11.478;2024-03-23T04:34:23;2.93;;;2.60;;
9178;SDS011;71287;48.414;11.478;2024-03-23T04:36:50;2.70;;;2.20;;
9178;SDS011;71287;48.414;11.478;2024-03-23T04:39:15;3.27;;;1.90;;
9178;SDS011;71287;48.414;11.478;2024-03-23T04:41:45;2.23;;;1.90;;
9178;SDS011;71287;48.414;11.478;2024-03-23T04:44:12;2.77;;;1.57;;
9178;SDS011;71287;48.414;11.478;2024-03-23T04:46:39;3.10;;;1.53;;
9178;SDS011;71287;48.414;11.478;2024-03-23T04:49:06;2.43;;;2.10;;
9178;SDS011;71287;48.414;11.478;2024-03-23T04:51:35;3.27;;;1.67;;
9178;SDS011;71287;48.414;11.478;2024-03-23T04:54:02;3.03;;;1.97;;
9178;SDS011;71287;48.414;11.478;2024-03-23T04:56:30;2.60;;;2.40;;
9178;SDS011;71287;48.414;11.478;2024-03-23T04:58:59;3.30;;;2.10;;
9178;SDS011;71287;48.414;11.478;2024-03-23T05:01:27;3.73;;;2.10;;
9178;SDS011;71287;48.414;11.478;2024-03-23T05:03:54;4.37;;;2.47;;
9178;SDS011;71287;48.414;11.478;2024-03-23T05:06:19;3.97;;;2.30;;
9178;SDS011;71287;48.414;11.478;2024-03-23T05:08:46;3.37;;;2.30;;
9178;SDS011;71287;48.414;11.478;2024-03-23T05:11:12;3.33;;;2.03;;
9178;SDS011;71287;48.414;11.478;2024-03-23T05:13:39;3.90;;;2.13;;
9178;SDS011;71287;48.414;11.478;2024-03-23T05:16:07;2.63;;;2.13;;
9178;SDS011;71287;48.414;11.478;2024-03-23T05:18:33;4.10;;;2.53;;
9178;SDS011;71287;48.414;11.478;2024-03-23T05:21:00;2.50;;;1.90;;
9178;SDS011;71287;48.414;11.478;2024-03-23T05:23:26;1.80;;;1.70;;
9178;SDS011;71287;48.414;11.478;2024-03-23T05:25:54;2.93;;;2.03;;
9178;SDS011;71287;48.414;11.478;2024-03-23T05:28:20;2.37;;;1.73;;
9178;SDS011;71287;48.414;11.478;2024-03-23T05:30:49;2.03;;;1.93;;
9178;SDS011;71287;48.414;11.478;2024-03-23T05:33:17;1.93;;;1.83;;
9178;SDS011;71287;48.414;11.478;2024-03-23T05:35:44;2.60;;;2.10;;
9178;SDS011;71287;48.414;11.478;2024-03-23T05:38:09;2.37;;;2.17;;
9178;SDS011;71287;48.414;11.478;2024-03-23T05:40:36;2.57;;;2.37;;
9178;SDS011;71287;48.414;11.478;2024-03-23T05:43:05;2.33;;;1.93;;
9178;SDS011;71287;48.414;11.478;2024-03-23T05:45:31;2.43;;;2.07;;
9178;SDS011;71287;48.414;11.478;2024-03-23T05:47:57;1.83;;;1.73;;
9178;SDS011;71287;48.414;11.478;2024-03-23T05:50:25;2.70;;;1.50;;
9178;SDS011;71287;48.414;11.478;2024-03-23T05:52:51;3.03;;;2.73;;
9178;SDS011;71287;48.414;11.478;2024-03-23T05:55:18;4.77;;;3.90;;
9178;SDS011;71287;48.414;11.478;2024-03-23T05:57:44;4.07;;;3.33;;
9178;SDS011;71287;48.414;11.478;2024-03-23T06:00:11;3.27;;;2.97;;
9178;SDS011;71287;48.414;11.478;2024-03-23T06:02:41;2.40;;;2.20;;
9178;SDS011;71287;48.414;11.478;2024-03-23T06:05:09;2.33;;;1.63;;
9178;SDS011;71287;48.414;11.478;2024-03-23T06:07:36;2.47;;;1.30;;
9178;SDS011;71287;48.414;11.478;2024-03-23T06:10:03;1.33;;;1.10;;
9178;SDS011;71287;48.414;11.478;2024-03-23T06:12:30;2.17;;;1.10;;
9178;SDS011;71287;48.414;11.478;2024-03-23T06:14:57;1.20;;;1.00;;
9178;SDS011;71287;48.414;11.478;2024-03-23T06:17:23;2.40;;;1.30;;
9178;SDS011;71287;48.414;11.478;2024-03-23T06:19:50;20.90;;;1.90;;
9178;SDS011;71287;48.414;11.478;2024-03-23T06:22:15;1.70;;;1.10;;
9178;SDS011;71287;48.414;11.478;2024-03-23T06:24:44;1.23;;;1.13;;
9178;SDS011;71287;48.414;11.478;2024-03-23T06:27:09;1.03;;;0.97;;
9178;SDS011;71287;48.414;11.478;2024-03-23T06:29:36;1.20;;;1.10;;
9178;SDS011;71287;48.414;11.478;2024-03-23T06:32:02;1.63;;;1.00;;
9178;SDS011;71287;48.414;11.478;2024-03-23T06:34:29;1.27;;;1.10;;
9178;SDS011;71287;48.414;11.478;2024-03-23T06:36:55;2.30;;;0.87;;
9178;SDS011;71287;48.414;11.478;2024-03-23T06:39:22;2.30;;;1.00;;
9178;SDS011;71287;48.414;11.478;2024-03-23T06:41:52;1.50;;;1.00;;
9178;SDS011;71287;48.414;11.478;2024-03-23T06:44:19;2.20;;;1.00;;
9178;SDS011;71287;48.414;11.478;2024-03-23T06:46:45;1.37;;;0.90;;
9178;SDS011;71287;48.414;11.478;2024-03-23T06:49:13;0.87;;;0.70;;
9178;SDS011;71287;48.414;11.478;2024-03-23T06:51:40;1.90;;;0.87;;
9178;SDS011;71287;48.414;11.478;2024-03-23T06:54:07;1.47;;;1.00;;
9178;SDS011;71287;48.414;11.478;2024-03-23T06:56:34;2.30;;;0.77;;
9178;SDS011;71287;48.414;11.478;2024-03-23T06:59:01;0.90;;;0.90;;
9178;SDS011;71287;48.414;11.478;2024-03-23T07:01:28;1.00;;;0.87;;
9178;SDS011;71287;48.414;11.478;2024-03-23T07:03:53;1.37;;;1.00;;
9178;SDS011;71287;48.414;11.478;2024-03-23T07:06:20;3.23;;;1.20;;
9178;SDS011;71287;48.414;11.478;2024-03-23T07:08:46;4.13;;;1.17;;
9178;SDS011;71287;48.414;11.478;2024-03-23T07:11:17;1.77;;;1.00;;
9178;SDS011;71287;48.414;11.478;2024-03-23T07:13:44;3.30;;;0.90;;
9178;SDS011;71287;48.414;11.478;2024-03-23T07:16:12;2.53;;;1.00;;
9178;SDS011;71287;48.414;11.478;2024-03-23T07:18:38;1.40;;;0.90;;
9178;SDS011;71287;48.414;11.478;2024-03-23T07:21:05;1.10;;;1.00;;
9178;SDS011;71287;48.414;11.478;2024-03-23T07:23:32;1.53;;;1.10;;
9178;SDS011;71287;48.414;11.478;2024-03-23T07:25:59;3.60;;;1.10;;
9178;SDS011;71287;48.414;11.478;2024-03-23T07:28:25;1.97;;;1.07;;
9178;SDS011;71287;48.414;11.478;2024-03-23T07:31:02;1.63;;;1.07;;
9178;SDS011;71287;48.414;11.478;2024-03-23T07:33:31;2.80;;;1.00;;
9178;SDS011;71287;48.414;11.478;2024-03-23T07:35:58;2.23;;;1.40;;
9178;SDS011;71287;48.414;11.478;2024-03-23T07:38:25;2.20;;;1.07;;
9178;SDS011;71287;48.414;11.478;2024-03-23T07:41:02;1.13;;;0.90;;
9178;SDS011;71287;48.414;11.478;2024-03-23T07:43:28;1.57;;;1.10;;
9178;SDS011;71287;48.414;11.478;2024-03-23T07:45:55;1.60;;;0.80;;
9178;SDS011;71287;48.414;11.478;2024-03-23T07:48:21;0.90;;;0.80;;
9178;SDS011;71287;48.414;11.478;2024-03-23T07:50:57;2.57;;;1.00;;
9178;SDS011;71287;48.414;11.478;2024-03-23T07:53:23;4.63;;;2.40;;
9178;SDS011;71287;48.414;11.478;2024-03-23T07:55:57;2.60;;;2.40;;
9178;SDS011;71287;48.414;11.478;2024-03-23T07:58:23;4.43;;;2.10;;
9178;SDS011;71287;48.414;11.478;2024-03-23T08:00:50;2.97;;;2.70;;
9178;SDS011;71287;48.414;11.478;2024-03-23T08:03:16;3.07;;;2.40;;
9178;SDS011;71287;48.414;11.478;2024-03-23T08:05:42;3.30;;;2.43;;
9178;SDS011;71287;48.414;11.478;2024-03-23T08:08:09;3.27;;;2.30;;
9178;SDS011;71287;48.414;11.478;2024-03-23T08:10:36;3.07;;;2.87;;
9178;SDS011;71287;48.414;11.478;2024-03-23T08:13:02;3.03;;;2.73;;
9178;SDS011;71287;48.414;11.478;2024-03-23T08:15:30;3.80;;;2.63;;
9178;SDS011;71287;48.414;11.478;2024-03-23T08:17:58;2.33;;;2.00;;
9178;SDS011;71287;48.414;11.478;2024-03-23T08:20:25;3.80;;;2.40;;
9178;SDS011;71287;48.414;11.478;2024-03-23T08:22:52;2.23;;;2.03;;
9178;SDS011;71287;48.414;11.478;2024-03-23T08:25:20;2.03;;;1.90;;
9178;SDS011;71287;48.414;11.478;2024-03-23T08:27:46;1.97;;;1.80;;
9178;SDS011;71287;48.414;11.478;2024-03-23T08:30:12;2.50;;;2.30;;
9178;SDS011;71287;48.414;11.478;2024-03-23T08:32:38;2.37;;;2.17;;
9178;SDS011;71287;48.414;11.478;2024-03-23T08:35:06;3.57;;;2.37;;
9178;SDS011;71287;48.414;11.478;2024-03-23T08:37:32;2.37;;;2.17;;
9178;SDS011;71287;48.414;11.478;2024-03-23T08:39:59;2.23;;;1.90;;
9178;SDS011;71287;48.414;11.478;2024-03-23T08:42:26;3.33;;;1.80;;
9178;SDS011;71287;48.414;11.478;2024-03-23T08:44:53;2.20;;;1.30;;
9178;SDS011;71287;48.414;11.478;2024-03-23T08:47:18;1.60;;;1.50;;
9178;SDS011;71287;48.414;11.478;2024-03-23T08:49:45;1.67;;;1.57;;
9178;SDS011;71287;48.414;11.478;2024-03-23T08:52:11;1.50;;;1.40;;
9178;SDS011;71287;48.414;11.478;2024-03-23T08:54:37;1.90;;;1.80;;
9178;SDS011;71287;48.414;11.478;2024-03-23T08:57:03;2.37;;;1.70;;
9178;SDS011;71287;48.414;11.478;2024-03-23T08:59:32;1.57;;;1.47;;
9178;SDS011;71287;48.414;11.478;2024-03-23T09:01:58;1.40;;;1.30;;
9178;SDS011;71287;48.414;11.478;2024-03-23T09:04:25;1.67;;;1.50;;
9178;SDS011;71287;48.414;11.478;2024-03-23T09:06:51;1.67;;;1.53;;
9178;SDS011;71287;48.414;11.478;2024-03-23T09:09:17;1.30;;;1.20;;
9178;SDS011;71287;48.414;11.478;2024-03-23T09:11:45;1.77;;;1.33;;
9178;SDS011;71287;48.414;11.478;2024-03-23T09:14:11;1.53;;;1.43;;
9178;SDS011;71287;48.414;11.478;2024-03-23T09:16:38;0.90;;;0.90;;
9178;SDS011;71287;48.414;11.478;2024-03-23T09:19:05;2.20;;;1.50;;
9178;SDS011;71287;48.414;11.478;2024-03-23T09:21:31;1.70;;;1.60;;
9178;SDS011;71287;48.414;11.478;2024-03-23T09:23:58;2.23;;;1.80;;
9178;SDS011;71287;48.414;11.478;2024-03-23T09:26:23;2.03;;;1.83;;
9178;SDS011;71287;48.414;11.478;2024-03-23T09:28:50;2.07;;;1.10;;
9178;SDS011;71287;48.414;11.478;2024-03-23T09:31:16;1.63;;;1.20;;
9178;SDS011;71287;48.414;11.478;2024-03-23T09:33:44;1.60;;;1.50;;
9178;SDS011;71287;48.414;11.478;2024-03-23T09:36:10;1.40;;;1.30;;
9178;SDS011;71287;48.414;11.478;2024-03-23T09:38:37;1.20;;;1.10;;
9178;SDS011;71287;48.414;11.478;2024-03-23T09:41:06;1.20;;;1.10;;
9178;SDS011;71287;48.414;11.478;2024-03-23T09:43:34;0.97;;;0.80;;
9178;SDS011;71287;48.414;11.478;2024-03-23T09:46:01;2.30;;;1.00;;
9178;SDS011;71287;48.414;11.478;2024-03-23T09:48:28;2.83;;;0.70;;
9178;SDS011;71287;48.414;11.478;2024-03-23T09:50:56;0.80;;;0.80;;
9178;SDS011;71287;48.414;11.478;2024-03-23T09:53:22;1.10;;;0.77;;
9178;SDS011;71287;48.414;11.478;2024-03-23T09:55:48;1.77;;;0.87;;
9178;SDS011;71287;48.414;11.478;2024-03-23T09:58:16;1.10;;;0.77;;
9178;SDS011;71287;48.414;11.478;2024-03-23T10:00:43;0.97;;;0.80;;
9178;SDS011;71287;48.414;11.478;2024-03-23T10:03:10;1.80;;;1.23;;
9178;SDS011;71287;48.414;11.478;2024-03-23T10:05:36;9.67;;;4.90;;
9178;SDS011;71287;48.414;11.478;2024-03-23T10:08:16;1.13;;;0.90;;
9178;SDS011;71287;48.414;11.478;2024-03-23T10:10:43;1.10;;;0.60;;
9178;SDS011;71287;48.414;11.478;2024-03-23T10:13:11;0.40;;;0.40;;
9178;SDS011;71287;48.414;11.478;2024-03-23T10:15:50;1.50;;;0.40;;
9178;SDS011;71287;48.414;11.478;2024-03-23T10:18:22;0.83;;;0.40;;
9178;SDS011;71287;48.414;11.478;2024-03-23T10:20:50;0.40;;;0.40;;
9178;SDS011;71287;48.414;11.478;2024-03-23T10:23:19;0.40;;;0.37;;
9178;SDS011;71287;48.414;11.478;2024-03-23T10:25:44;2.17;;;1.97;;
9178;SDS011;71287;48.414;11.478;2024-03-23T10:28:11;2.80;;;2.50;;
9178;SDS011;71287;48.414;11.478;2024-03-23T10:30:37;1.90;;;1.80;;
9178;SDS011;71287;48.414;11.478;2024-03-23T10:33:08;1.23;;;0.90;;
9178;SDS011;71287;48.414;11.478;2024-03-23T10:35:34;0.50;;;0.50;;
9178;SDS011;71287;48.414;11.478;2024-03-23T10:38:02;1.03;;;0.47;;
9178;SDS011;71287;48.414;11.478;2024-03-23T10:40:31;0.23;;;0.23;;
9178;SDS011;71287;48.414;11.478;2024-03-23T10:42:59;0.37;;;0.30;;
9178;SDS011;71287;48.414;11.478;2024-03-23T10:45:25;0.40;;;0.30;;
9178;SDS011;71287;48.414;11.478;2024-03-23T10:47:52;0.30;;;0.30;;
9178;SDS011;71287;48.414;11.478;2024-03-23T10:50:18;0.20;;;0.20;;
9178;SDS011;71287;48.414;11.478;2024-03-23T10:52:45;0.20;;;0.20;;
9178;SDS011;71287;48.414;11.478;2024-03-23T10:55:13;3.40;;;0.27;;
9178;SDS011;71287;48.414;11.478;2024-03-23T10:57:45;0.60;;;0.60;;
9178;SDS011;71287;48.414;11.478;2024-03-23T11:00:16;0.83;;;0.40;;
9178;SDS011;71287;48.414;11.478;2024-03-23T11:02:43;0.90;;;0.63;;
9178;SDS011;71287;48.414;11.478;2024-03-23T11:05:28;0.60;;;0.50;;
9178;SDS011;71287;48.414;11.478;2024-03-23T11:07:55;0.40;;;0.40;;
9178;SDS011;71287;48.414;11.478;2024-03-23T11:10:24;4.97;;;3.77;;
9178;SDS011;71287;48.414;11.478;2024-03-23T11:12:54;5.07;;;3.20;;
9178;SDS011;71287;48.414;11.478;2024-03-23T11:15:20;0.63;;;0.50;;
9178;SDS011;71287;48.414;11.478;2024-03-23T11:18:02;0.67;;;0.60;;
9178;SDS011;71287;48.414;11.478;2024-03-23T11:20:31;0.50;;;0.40;;
9178;SDS011;71287;48.414;11.478;2024-03-23T11:22:59;0.30;;;0.30;;
9178;SDS011;71287;48.414;11.478;2024-03-23T11:25:25;0.20;;;0.20;;
9178;SDS011;71287;48.414;11.478;2024-03-23T11:27:54;0.30;;;0.20;;
9178;SDS011;71287;48.414;11.478;2024-03-23T11:30:22;0.27;;;0.27;;
9178;SDS011;71287;48.414;11.478;2024-03-23T11:32:50;0.20;;;0.20;;
9178;SDS011;71287;48.414;11.478;2024-03-23T11:35:25;1.10;;;0.20;;
9178;SDS011;71287;48.414;11.478;2024-03-23T11:38:02;0.80;;;0.50;;
9178;SDS011;71287;48.414;11.478;2024-03-23T11:40:29;0.30;;;0.30;;
9178;SDS011;71287;48.414;11.478;2024-03-23T11:42:57;0.30;;;0.30;;
9178;SDS011;71287;48.414;11.478;2024-03-23T11:45:24;1.47;;;0.40;;
9178;SDS011;71287;48.414;11.478;2024-03-23T11:48:01;1.23;;;0.50;;
9178;SDS011;71287;48.414;11.478;2024-03-23T11:50:30;0.30;;;0.30;;
9178;SDS011;71287;48.414;11.478;2024-03-23T11:53:12;2.63;;;1.97;;
9178;SDS011;71287;48.414;11.478;2024-03-23T11:55:40;1.50;;;0.90;;
9178;SDS011;71287;48.414;11.478;2024-03-23T11:58:15;0.90;;;0.60;;
9178;SDS011;71287;48.414;11.478;2024-03-23T12:00:42;0.80;;;0.70;;
9178;SDS011;71287;48.414;11.478;2024-03-23T12:03:09;1.23;;;0.60;;
9178;SDS011;71287;48.414;11.478;2024-03-23T12:05:35;0.87;;;0.60;;
9178;SDS011;71287;48.414;11.478;2024-03-23T12:08:16;0.50;;;0.50;;
9178;SDS011;71287;48.414;11.478;2024-03-23T12:10:44;0.80;;;0.60;;
9178;SDS011;71287;48.414;11.478;2024-03-23T12:13:15;2.33;;;0.40;;
9178;SDS011;71287;48.414;11.478;2024-03-23T12:15:42;1.67;;;0.73;;
9178;SDS011;71287;48.414;11.478;2024-03-23T12:18:09;1.60;;;0.70;;
9178;SDS011;71287;48.414;11.478;2024-03-23T12:20:36;1.90;;;0.90;;
9178;SDS011;71287;48.414;11.478;2024-03-23T12:23:07;1.27;;;0.80;;
9178;SDS011;71287;48.414;11.478;2024-03-23T12:25:34;0.97;;;0.63;;
9178;SDS011;71287;48.414;11.478;2024-03-23T12:28:01;2.23;;;0.90;;
9178;SDS011;71287;48.414;11.478;2024-03-23T12:30:32;1.70;;;1.03;;
9178;SDS011;71287;48.414;11.478;2024-03-23T12:32:59;1.20;;;0.70;;
9178;SDS011;71287;48.414;11.478;2024-03-23T12:35:25;2.40;;;1.03;;
9178;SDS011;71287;48.414;11.478;2024-03-23T12:37:51;1.10;;;0.70;;
9178;SDS011;71287;48.414;11.478;2024-03-23T12:40:18;2.83;;;1.10;;
9178;SDS011;71287;48.414;11.478;2024-03-23T12:42:44;2.33;;;0.87;;
9178;SDS011;71287;48.414;11.478;2024-03-23T12:45:10;1.20;;;1.10;;
9178;SDS011;71287;48.414;11.478;2024-03-23T12:47:37;2.50;;;2.30;;
9178;SDS011;71287;48.414;11.478;2024-03-23T12:50:04;1.70;;;1.10;;
9178;SDS011;71287;48.414;11.478;2024-03-23T12:52:31;2.83;;;1.20;;
9178;SDS011;71287;48.414;11.478;2024-03-23T12:54:57;2.70;;;1.10;;
9178;SDS011;71287;48.414;11.478;2024-03-23T12:57:23;2.17;;;1.30;;
9178;SDS011;71287;48.414;11.478;2024-03-23T12:59:50;1.90;;;1.10;;
9178;SDS011;71287;48.414;11.478;2024-03-23T13:02:17;4.47;;;2.47;;
9178;SDS011;71287;48.414;11.478;2024-03-23T13:04:49;2.63;;;1.70;;
9178;SDS011;71287;48.414;11.478;2024-03-23T13:07:15;1.60;;;1.33;;
9178;SDS011;71287;48.414;11.478;2024-03-23T13:09:42;3.23;;;1.00;;
9178;SDS011;71287;48.414;11.478;2024-03-23T13:12:08;3.30;;;1.23;;
9178;SDS011;71287;48.414;11.478;2024-03-23T13:14:37;2.73;;;1.23;;
9178;SDS011;71287;48.414;11.478;2024-03-23T13:17:03;1.90;;;1.40;;
9178;SDS011;71287;48.414;11.478;2024-03-23T13:19:30;1.70;;;1.00;;
9178;SDS011;71287;48.414;11.478;2024-03-23T13:21:57;1.97;;;1.73;;
9178;SDS011;71287;48.414;11.478;2024-03-23T13:24:25;2.70;;;1.60;;
9178;SDS011;71287;48.414;11.478;2024-03-23T13:26:51;1.93;;;1.17;;
9178;SDS011;71287;48.414;11.478;2024-03-23T13:29:19;3.60;;;1.60;;
9178;SDS011;71287;48.414;11.478;2024-03-23T13:31:45;1.57;;;1.30;;
9178;SDS011;71287;48.414;11.478;2024-03-23T13:34:12;2.40;;;1.30;;
9178;SDS011;71287;48.414;11.478;2024-03-23T13:36:40;2.27;;;1.53;;
9178;SDS011;71287;48.414;11.478;2024-03-23T13:39:08;3.00;;;1.80;;
9178;SDS011;71287;48.414;11.478;2024-03-23T13:41:36;1.77;;;1.50;;
9178;SDS011;71287;48.414;11.478;2024-03-23T13:44:04;3.23;;;1.40;;
9178;SDS011;71287;48.414;11.478;2024-03-23T13:46:31;4.37;;;1.70;;
9178;SDS011;71287;48.414;11.478;2024-03-23T13:48:57;4.00;;;1.70;;
9178;SDS011;71287;48.414;11.478;2024-03-23T13:51:24;2.80;;;1.67;;
9178;SDS011;71287;48.414;11.478;2024-03-23T13:53:51;2.70;;;1.40;;
9178;SDS011;71287;48.414;11.478;2024-03-23T13:56:20;2.97;;;1.80;;
9178;SDS011;71287;48.414;11.478;2024-03-23T13:58:46;2.97;;;1.63;;
9178;SDS011;71287;48.414;11.478;2024-03-23T14:01:13;3.20;;;1.50;;
9178;SDS011;71287;48.414;11.478;2024-03-23T14:03:39;2.23;;;1.30;;
9178;SDS011;71287;48.414;11.478;2024-03-23T14:06:06;2.60;;;1.50;;
9178;SDS011;71287;48.414;11.478;2024-03-23T14:08:33;1.47;;;1.33;;
9178;SDS011;71287;48.414;11.478;2024-03-23T14:11:01;2.87;;;1.10;;
9178;SDS011;71287;48.414;11.478;2024-03-23T14:13:30;3.50;;;0.90;;
9178;SDS011;71287;48.414;11.478;2024-03-23T14:15:57;2.03;;;1.13;;
9178;SDS011;71287;48.414;11.478;2024-03-23T14:18:22;3.23;;;0.90;;
9178;SDS011;71287;48.414;11.478;2024-03-23T14:20:51;2.10;;;1.10;;
9178;SDS011;71287;48.414;11.478;2024-03-23T14:23:18;2.83;;;1.30;;
9178;SDS011;71287;48.414;11.478;2024-03-23T14:25:44;2.40;;;0.90;;
9178;SDS011;71287;48.414;11.478;2024-03-23T14:28:11;1.67;;;0.90;;
9178;SDS011;71287;48.414;11.478;2024-03-23T14:30:41;1.73;;;0.93;;
9178;SDS011;71287;48.414;11.478;2024-03-23T14:33:08;1.70;;;0.70;;
9178;SDS011;71287;48.414;11.478;2024-03-23T14:35:33;4.27;;;1.00;;
9178;SDS011;71287;48.414;11.478;2024-03-23T14:38:00;1.77;;;1.00;;
9178;SDS011;71287;48.414;11.478;2024-03-23T14:40:26;1.70;;;0.80;;
9178;SDS011;71287;48.414;11.478;2024-03-23T14:42:53;2.03;;;0.93;;
9178;SDS011;71287;48.414;11.478;2024-03-23T14:45:19;0.90;;;0.90;;
9178;SDS011;71287;48.414;11.478;2024-03-23T14:47:48;2.30;;;1.10;;
9178;SDS011;71287;48.414;11.478;2024-03-23T14:50:13;1.40;;;0.97;;
9178;SDS011;71287;48.414;11.478;2024-03-23T14:52:41;1.43;;;0.90;;
9178;SDS011;71287;48.414;11.478;2024-03-23T14:55:08;3.17;;;1.03;;
9178;SDS011;71287;48.414;11.478;2024-03-23T14:57:36;2.23;;;1.20;;
9178;SDS011;71287;48.414;11.478;2024-03-23T15:00:02;2.13;;;1.40;;
9178;SDS011;71287;48.414;11.478;2024-03-23T15:02:30;3.67;;;1.03;;
9178;SDS011;71287;48.414;11.478;2024-03-23T15:04:58;2.57;;;1.23;;
9178;SDS011;71287;48.414;11.478;2024-03-23T15:07:25;3.63;;;1.23;;
9178;SDS011;71287;48.414;11.478;2024-03-23T15:09:51;4.37;;;2.40;;
9178;SDS011;71287;48.414;11.478;2024-03-23T15:12:18;2.93;;;1.53;;
9178;SDS011;71287;48.414;11.478;2024-03-23T15:14:44;1.90;;;0.93;;
9178;SDS011;71287;48.414;11.478;2024-03-23T15:17:12;1.50;;;1.00;;
9178;SDS011;71287;48.414;11.478;2024-03-23T15:19:38;10.30;;;4.00;;
9178;SDS011;71287;48.414;11.478;2024-03-23T15:22:06;9.00;;;4.47;;
9178;SDS011;71287;48.414;11.478;2024-03-23T15:24:32;5.70;;;4.10;;
9178;SDS011;71287;48.414;11.478;2024-03-23T15:27:00;3.20;;;2.10;;
9178;SDS011;71287;48.414;11.478;2024-03-23T15:29:26;2.63;;;2.23;;
9178;SDS011;71287;48.414;11.478;2024-03-23T15:31:53;3.57;;;2.17;;
9178;SDS011;71287;48.414;11.478;2024-03-23T15:34:19;5.27;;;1.73;;
9178;SDS011;71287;48.414;11.478;2024-03-23T15:36:46;2.87;;;1.87;;
9178;SDS011;71287;48.414;11.478;2024-03-23T15:39:14;3.53;;;2.27;;
9178;SDS011;71287;48.414;11.478;2024-03-23T15:41:41;4.37;;;2.93;;